createdAt,value
2022-07-28T04:02:31.319Z,80.31
2022-07-28T04:04:59.012Z,80.74
2022-07-28T04:07:26.664Z,80.31
2022-07-28T04:09:54.242Z,81.09
2022-07-28T04:12:21.878Z,81.27
2022-07-28T04:14:49.838Z,81.67
2022-07-28T04:17:17.480Z,82.11
2022-07-28T04:19:46.352Z,82.42
2022-07-28T04:22:13.982Z,82.39
2022-07-28T04:24:41.535Z,82.31
2022-07-28T04:27:09.293Z,82.51
2022-07-28T04:29:36.898Z,82.93
2022-07-28T04:32:04.809Z,83.25
2022-07-28T04:34:32.418Z,83.61
2022-07-28T04:37:01.302Z,83.48
2022-07-28T04:39:29.159Z,83.98
2022-07-28T04:41:57.002Z,83.98
2022-07-28T04:44:24.679Z,83.97
2022-07-28T04:46:52.287Z,84.13
2022-07-28T04:49:19.980Z,84.06
2022-07-28T04:51:50.540Z,84.19
2022-07-28T04:54:26.043Z,84.55
2022-07-28T04:56:54.323Z,85.17
2022-07-28T04:59:23.686Z,85.38
2022-07-28T05:01:52.390Z,86.66
2022-07-28T05:04:20.425Z,87.40
2022-07-28T05:06:48.166Z,86.63
2022-07-28T05:09:15.908Z,87.91
2022-07-28T05:11:45.077Z,86.81
2022-07-28T05:14:12.831Z,86.40
2022-07-28T05:16:41.171Z,85.69
2022-07-28T05:19:09.661Z,84.93
2022-07-28T05:21:37.664Z,85.16
2022-07-28T05:24:06.104Z,84.44
2022-07-28T05:26:33.728Z,84.14
2022-07-28T05:29:02.880Z,84.16
2022-07-28T05:31:30.825Z,84.47
2022-07-28T05:33:58.543Z,84.18
2022-07-28T05:36:26.347Z,85.53
2022-07-28T05:38:54.008Z,84.42
2022-07-28T05:41:21.819Z,84.36
2022-07-28T05:43:49.466Z,83.98
2022-07-28T05:46:21.604Z,83.70
2022-07-28T05:48:49.398Z,83.67
2022-07-28T05:51:17.043Z,83.71
2022-07-28T05:53:44.698Z,84.03
2022-07-28T05:56:12.348Z,84.17
2022-07-28T05:58:39.941Z,84.41
2022-07-28T06:01:07.703Z,84.89
2022-07-28T06:03:42.123Z,85.22
2022-07-28T06:06:16.408Z,84.98
2022-07-28T06:08:46.530Z,84.16
2022-07-28T06:11:22.330Z,83.77
2022-07-28T06:13:51.284Z,83.93
2022-07-28T06:16:20.542Z,83.63
2022-07-28T06:18:49.557Z,82.76
2022-07-28T06:21:17.359Z,82.27
2022-07-28T06:23:45.578Z,82.46
2022-07-28T06:26:13.153Z,82.37
2022-07-28T06:28:40.901Z,81.54
2022-07-28T06:31:09.142Z,80.60
2022-07-28T06:33:36.883Z,80.36
2022-07-28T06:36:06.255Z,79.28
2022-07-28T06:38:34.562Z,79.25
2022-07-28T06:41:02.265Z,78.15
2022-07-28T06:43:30.681Z,77.47
2022-07-28T06:45:58.553Z,77.26
2022-07-28T06:48:29.267Z,77.42
2022-07-28T06:50:59.378Z,76.90
2022-07-28T06:53:33.788Z,76.83
2022-07-28T06:56:01.838Z,76.70
2022-07-28T06:58:29.478Z,76.35
2022-07-28T07:00:57.248Z,76.75
2022-07-28T07:03:25.585Z,76.22
2022-07-28T07:05:53.339Z,75.34
2022-07-28T07:08:21.561Z,75.23
2022-07-28T07:10:50.740Z,75.50
2022-07-28T07:13:18.334Z,75.15
2022-07-28T07:15:46.201Z,74.82
2022-07-28T07:18:13.843Z,74.85
2022-07-28T07:20:41.457Z,74.56
2022-07-28T07:23:09.208Z,74.44
2022-07-28T07:25:37.132Z,73.52
2022-07-28T07:28:06.283Z,73.06
2022-07-28T07:30:34.021Z,71.71
2022-07-28T07:33:01.617Z,70.01
2022-07-28T07:35:35.530Z,67.12
2022-07-28T07:38:03.134Z,66.51
2022-07-28T07:40:30.697Z,67.66
2022-07-28T07:42:58.318Z,67.44
2022-07-28T07:45:27.663Z,63.29
2022-07-28T07:47:55.350Z,63.33
2022-07-28T07:50:23.220Z,63.73
2022-07-28T07:52:50.860Z,63.62
2022-07-28T07:55:18.499Z,62.95
2022-07-28T07:57:46.210Z,61.00
2022-07-28T08:00:28.856Z,61.47
2022-07-28T08:02:58.893Z,59.87
2022-07-28T08:05:34.880Z,59.38
2022-07-28T08:08:04.899Z,60.25
2022-07-28T08:10:32.626Z,59.78
2022-07-28T08:13:00.267Z,60.02
2022-07-28T08:15:28.083Z,59.82
2022-07-28T08:17:55.744Z,59.60
2022-07-28T08:20:25.049Z,59.92
2022-07-28T08:22:54.198Z,60.07
2022-07-28T08:25:22.003Z,59.97
2022-07-28T08:27:50.252Z,59.78
2022-07-28T08:30:23.047Z,59.29
2022-07-28T08:32:56.893Z,58.35
2022-07-28T08:35:33.514Z,57.34
2022-07-28T08:38:02.430Z,57.19
2022-07-28T08:40:32.238Z,57.04
2022-07-28T08:43:04.738Z,57.29
2022-07-28T08:45:37.108Z,56.84
2022-07-28T08:48:09.979Z,56.27
2022-07-28T08:50:39.710Z,56.50
2022-07-28T08:53:08.137Z,55.87
2022-07-28T08:55:37.018Z,56.17
2022-07-28T08:58:04.938Z,55.35
2022-07-28T09:00:32.903Z,55.63
2022-07-28T09:03:03.099Z,56.07
2022-07-28T09:05:31.321Z,55.59
2022-07-28T09:08:00.613Z,55.83
2022-07-28T09:10:28.456Z,56.05
2022-07-28T09:12:56.235Z,54.73
2022-07-28T09:15:23.949Z,54.61
2022-07-28T09:17:51.521Z,55.02
2022-07-28T09:20:19.505Z,54.08
2022-07-28T09:23:02.491Z,53.51
2022-07-28T09:25:31.113Z,53.45
2022-07-28T09:28:07.506Z,54.67
2022-07-28T09:30:36.444Z,54.20
2022-07-28T09:33:42.868Z,53.58
2022-07-28T09:36:15.438Z,53.62
2022-07-28T09:38:44.415Z,52.26
2022-07-28T09:41:12.526Z,51.38
2022-07-28T09:43:42.394Z,51.30
2022-07-28T09:46:12.271Z,51.27
2022-07-28T09:48:52.648Z,50.71
2022-07-28T09:51:22.565Z,50.80
2022-07-28T09:53:51.939Z,50.92
2022-07-28T09:56:19.736Z,50.92
2022-07-28T09:58:55.131Z,50.86
2022-07-28T10:01:24.381Z,51.39
2022-07-28T10:03:53.677Z,50.69
2022-07-28T10:06:29.802Z,50.94
2022-07-28T10:09:00.273Z,51.59
2022-07-28T10:11:30.084Z,50.92
2022-07-28T10:14:03.569Z,50.67
2022-07-28T10:16:32.495Z,50.92
2022-07-28T10:19:02.298Z,50.58
2022-07-28T10:21:32.847Z,50.34
2022-07-28T10:24:06.911Z,50.80
2022-07-28T10:26:39.291Z,49.79
2022-07-28T10:29:08.356Z,50.54
2022-07-28T10:31:44.213Z,50.88
2022-07-28T10:34:18.905Z,50.58
2022-07-28T10:36:55.281Z,50.57
2022-07-28T10:39:29.598Z,48.91
2022-07-28T10:41:57.477Z,49.50
2022-07-28T10:44:25.933Z,50.17
2022-07-28T10:46:54.083Z,49.13
2022-07-28T10:49:21.945Z,48.95
2022-07-28T10:52:04.949Z,48.89
2022-07-28T10:54:40.987Z,49.33
2022-07-28T10:57:13.369Z,49.43
2022-07-28T10:59:58.194Z,49.47
2022-07-28T11:03:13.604Z,48.55
2022-07-28T11:05:42.523Z,48.29
2022-07-28T11:08:27.689Z,48.12
2022-07-28T11:11:07.666Z,48.05
2022-07-28T11:13:40.794Z,48.17
2022-07-28T11:16:22.029Z,48.19
2022-07-28T11:19:08.041Z,48.34
2022-07-28T11:22:22.412Z,48.48
2022-07-28T11:25:22.197Z,48.93
2022-07-28T11:28:05.940Z,49.26
2022-07-28T11:30:53.262Z,48.53
2022-07-28T11:33:24.988Z,47.41
2022-07-28T11:36:02.445Z,47.44
2022-07-28T11:38:30.082Z,45.77
2022-07-28T11:40:58.792Z,45.20
2022-07-28T11:43:36.362Z,44.51
2022-07-28T11:46:37.390Z,44.59
2022-07-28T11:49:20.712Z,43.83
2022-07-28T11:52:15.206Z,42.94
2022-07-28T11:54:50.713Z,43.21
2022-07-28T11:57:22.634Z,42.33
2022-07-28T11:59:54.422Z,42.41
2022-07-28T12:02:24.516Z,42.73
2022-07-28T12:05:07.475Z,42.07
2022-07-28T12:07:40.700Z,41.99
2022-07-28T12:10:53.489Z,41.35
2022-07-28T12:13:26.899Z,41.22
2022-07-28T12:15:55.827Z,39.00
2022-07-28T12:18:25.105Z,38.34
2022-07-28T12:20:54.351Z,38.28
2022-07-28T12:23:38.740Z,36.92
2022-07-28T12:26:13.381Z,36.62
2022-07-28T12:28:51.171Z,36.64
2022-07-28T12:31:25.746Z,37.66
2022-07-28T12:33:53.931Z,36.50
2022-07-28T12:36:24.092Z,36.80
2022-07-28T12:38:52.726Z,36.09
2022-07-28T12:41:20.497Z,36.49
2022-07-28T12:43:52.102Z,35.29
2022-07-28T12:46:28.401Z,35.38
2022-07-28T12:48:58.307Z,34.83
2022-07-28T12:51:34.016Z,35.06
2022-07-28T12:54:02.314Z,35.00
2022-07-28T12:56:30.106Z,34.66
2022-07-28T12:59:09.221Z,34.75
2022-07-28T13:01:52.914Z,34.93
2022-07-28T13:04:39.718Z,34.94
2022-07-28T13:07:10.450Z,34.63
2022-07-28T13:09:45.216Z,34.08
2022-07-28T13:12:19.625Z,33.78
2022-07-28T13:14:51.811Z,33.57
2022-07-28T13:17:22.002Z,34.06
2022-07-28T13:19:50.547Z,33.55
2022-07-28T13:22:26.600Z,33.46
2022-07-28T13:24:54.660Z,32.96
2022-07-28T13:27:22.240Z,32.67
2022-07-28T13:29:50.271Z,33.17
2022-07-28T13:32:18.010Z,33.28
2022-07-28T13:34:47.043Z,32.75
2022-07-28T13:37:14.946Z,32.95
2022-07-28T13:39:42.961Z,32.57
2022-07-28T13:42:10.580Z,31.92
2022-07-28T13:44:41.139Z,32.38
2022-07-28T13:47:08.759Z,32.04
2022-07-28T13:49:37.706Z,32.99
2022-07-28T13:52:13.124Z,31.84
2022-07-28T13:54:41.034Z,31.75
2022-07-28T13:57:08.651Z,31.81
2022-07-28T13:59:37.907Z,31.04
2022-07-28T14:02:05.807Z,32.07
2022-07-28T14:04:46.079Z,31.98
2022-07-28T14:07:21.105Z,31.25
2022-07-28T14:09:50.052Z,30.94
2022-07-28T14:12:17.690Z,31.43
2022-07-28T14:14:47.926Z,31.46
2022-07-28T14:17:40.031Z,31.79
2022-07-28T14:20:03.999Z,32.01
2022-07-28T14:22:32.947Z,32.07
2022-07-28T14:25:00.804Z,32.17
2022-07-28T14:27:29.386Z,32.14
2022-07-28T14:29:57.237Z,32.72
2022-07-28T14:32:25.166Z,32.06
2022-07-28T14:34:53.541Z,32.27
2022-07-28T14:37:22.340Z,32.15
2022-07-28T14:39:51.569Z,31.57
2022-07-28T14:42:19.337Z,32.01
2022-07-28T14:44:46.960Z,31.68
2022-07-28T14:47:15.240Z,30.81
2022-07-28T14:49:58.325Z,31.11
2022-07-28T14:52:26.229Z,31.93
2022-07-28T14:54:55.207Z,31.55
2022-07-28T14:57:24.990Z,31.31
2022-07-28T15:00:12.768Z,31.32
2022-07-28T15:02:40.784Z,31.33
2022-07-28T15:05:09.757Z,31.19
2022-07-28T15:07:37.514Z,30.93
2022-07-28T15:10:07.318Z,30.81
2022-07-28T15:12:34.988Z,31.22
2022-07-28T15:15:02.597Z,30.48
2022-07-28T15:17:30.162Z,30.89
2022-07-28T15:19:57.772Z,31.57
2022-07-28T15:22:26.371Z,30.40
2022-07-28T15:24:57.072Z,31.08
2022-07-28T15:27:33.008Z,30.83
2022-07-28T15:30:03.086Z,31.51
2022-07-28T15:32:31.481Z,31.36
2022-07-28T15:35:00.071Z,31.52
2022-07-28T15:37:28.005Z,32.42
2022-07-28T15:39:55.698Z,32.53
2022-07-28T15:42:23.330Z,31.89
2022-07-28T15:44:52.729Z,32.44
2022-07-28T15:47:20.341Z,32.61
2022-07-28T15:49:47.937Z,32.49
2022-07-28T15:52:15.532Z,32.72
2022-07-28T15:54:43.143Z,32.92
2022-07-28T15:57:11.558Z,33.28
2022-07-28T15:59:50.222Z,33.02
2022-07-28T16:02:21.758Z,33.61
2022-07-28T16:04:53.657Z,33.50
2022-07-28T16:07:23.862Z,33.63
2022-07-28T16:09:52.362Z,33.50
2022-07-28T16:12:20.528Z,34.13
2022-07-28T16:14:48.107Z,34.35
2022-07-28T16:17:16.153Z,34.68
2022-07-28T16:19:49.910Z,34.82
2022-07-28T16:22:18.669Z,34.88
2022-07-28T16:24:46.894Z,34.57
2022-07-28T16:27:14.865Z,34.20
2022-07-28T16:29:42.594Z,34.97
2022-07-28T16:32:10.306Z,35.16
2022-07-28T16:34:38.089Z,35.32
2022-07-28T16:37:07.074Z,34.98
2022-07-28T16:39:34.995Z,35.35
2022-07-28T16:42:02.964Z,34.89
2022-07-28T16:44:30.917Z,35.06
2022-07-28T16:46:59.023Z,35.16
2022-07-28T16:49:26.792Z,35.32
2022-07-28T16:51:55.439Z,35.35
2022-07-28T16:54:24.543Z,35.41
2022-07-28T16:56:54.492Z,35.79
2022-07-28T16:59:22.273Z,35.61
2022-07-28T17:01:52.047Z,35.82
2022-07-28T17:04:21.007Z,35.89
2022-07-28T17:06:48.865Z,36.22
2022-07-28T17:09:17.269Z,36.00
2022-07-28T17:11:47.967Z,36.17
2022-07-28T17:14:16.973Z,36.40
2022-07-28T17:16:44.978Z,36.98
2022-07-28T17:19:12.643Z,36.72
2022-07-28T17:21:40.791Z,36.96
2022-07-28T17:24:11.491Z,37.20
2022-07-28T17:27:35.343Z,37.09
2022-07-28T17:29:28.268Z,37.63
2022-07-28T17:31:55.868Z,37.59
2022-07-28T17:34:23.869Z,37.64
2022-07-28T17:36:51.506Z,37.68
2022-07-28T17:39:19.133Z,38.16
2022-07-28T17:41:48.851Z,37.94
2022-07-28T17:44:17.050Z,38.01
2022-07-28T17:46:46.557Z,38.33
2022-07-28T17:49:14.369Z,38.22
2022-07-28T17:51:42.621Z,38.25
2022-07-28T17:54:13.575Z,38.25
2022-07-28T17:56:41.483Z,38.86
2022-07-28T17:59:09.731Z,38.79
2022-07-28T18:01:39.961Z,38.90
2022-07-28T18:04:13.013Z,39.43
2022-07-28T18:06:41.051Z,39.23
2022-07-28T18:09:10.778Z,39.70
2022-07-28T18:11:55.567Z,39.46
2022-07-28T18:14:24.196Z,39.81
2022-07-28T18:16:51.789Z,39.91
2022-07-28T18:19:21.295Z,39.85
2022-07-28T18:21:49.293Z,39.97
2022-07-28T18:24:21.546Z,39.80
2022-07-28T18:26:49.338Z,40.23
2022-07-28T18:29:17.656Z,40.26
2022-07-28T18:31:46.882Z,40.04
2022-07-28T18:34:15.600Z,40.26
2022-07-28T18:36:45.797Z,40.58
2022-07-28T18:39:13.403Z,40.25
2022-07-28T18:41:46.927Z,40.74
2022-07-28T18:44:16.496Z,40.51
2022-07-28T18:46:44.746Z,40.50
2022-07-28T18:49:12.441Z,40.98
2022-07-28T18:51:44.075Z,40.74
2022-07-28T18:54:18.598Z,40.69
2022-07-28T18:56:46.710Z,41.14
2022-07-28T18:59:14.349Z,41.17
2022-07-28T19:01:42.212Z,40.98
2022-07-28T19:04:09.903Z,41.01
2022-07-28T19:06:37.671Z,41.28
2022-07-28T19:09:05.842Z,41.46
2022-07-28T19:11:35.660Z,41.32
2022-07-28T19:14:03.320Z,41.54
2022-07-28T19:16:30.955Z,41.50
2022-07-28T19:18:58.538Z,41.69
2022-07-28T19:21:26.113Z,41.65
2022-07-28T19:23:53.787Z,41.98
2022-07-28T19:26:21.543Z,42.03
2022-07-28T19:28:50.528Z,42.08
2022-07-28T19:31:18.228Z,42.19
2022-07-28T19:33:45.919Z,42.23
2022-07-28T19:36:14.401Z,42.31
2022-07-28T19:38:42.710Z,42.61
2022-07-28T19:41:11.509Z,42.77
2022-07-28T19:43:39.752Z,42.75
2022-07-28T19:46:10.088Z,42.62
2022-07-28T19:48:38.126Z,42.74
2022-07-28T19:51:06.372Z,43.06
2022-07-28T19:53:35.738Z,42.99
2022-07-28T19:56:06.006Z,43.01
2022-07-28T19:58:36.877Z,43.14
2022-07-28T20:01:04.899Z,43.29
2022-07-28T20:04:01.759Z,43.46
2022-07-28T20:06:24.800Z,43.16
2022-07-28T20:08:53.885Z,43.35
2022-07-28T20:11:21.459Z,43.23
2022-07-28T20:13:49.318Z,43.54
2022-07-28T20:16:17.034Z,43.50
2022-07-28T20:18:46.082Z,43.69
2022-07-28T20:21:13.906Z,43.68
2022-07-28T20:23:42.213Z,44.08
2022-07-28T20:26:10.071Z,44.05
2022-07-28T20:28:38.727Z,44.31
2022-07-28T20:31:07.624Z,44.37
2022-07-28T20:33:35.537Z,43.88
2022-07-28T20:36:04.899Z,44.21
2022-07-28T20:38:32.471Z,44.31
2022-07-28T20:41:00.126Z,44.11
2022-07-28T20:43:36.911Z,44.39
2022-07-28T20:46:05.410Z,44.37
2022-07-28T20:48:33.221Z,44.25
2022-07-28T20:51:00.829Z,44.13
2022-07-28T20:53:30.055Z,44.24
2022-07-28T20:55:57.623Z,44.05
2022-07-28T20:58:25.183Z,44.18
2022-07-28T21:00:53.059Z,44.25
2022-07-28T21:03:22.159Z,44.17
2022-07-28T21:05:49.899Z,43.98
2022-07-28T21:08:18.552Z,44.17
2022-07-28T21:10:47.642Z,44.32
2022-07-28T21:13:15.298Z,44.34
2022-07-28T21:15:42.897Z,44.49
2022-07-28T21:18:10.997Z,44.51
2022-07-28T21:20:38.769Z,44.40
2022-07-28T21:23:06.449Z,44.69
2022-07-28T21:25:34.620Z,44.81
2022-07-28T21:28:21.115Z,44.60
2022-07-28T21:30:48.735Z,44.68
2022-07-28T21:33:22.367Z,44.52
2022-07-28T21:35:50.934Z,44.56
2022-07-28T21:38:18.683Z,44.73
2022-07-28T21:40:46.257Z,44.79
2022-07-28T21:43:15.677Z,44.89
2022-07-28T21:45:45.375Z,45.12
2022-07-28T21:48:13.455Z,44.99
2022-07-28T21:50:41.046Z,44.89
2022-07-28T21:53:10.839Z,45.10
2022-07-28T21:55:40.709Z,45.02
2022-07-28T21:58:08.929Z,45.00
2022-07-28T22:00:38.160Z,45.00
2022-07-28T22:03:05.925Z,45.16
2022-07-28T22:05:36.991Z,45.42
2022-07-28T22:08:05.395Z,45.58
2022-07-28T22:10:33.350Z,45.83
2022-07-28T22:13:01.290Z,46.13
2022-07-28T22:15:29.830Z,46.25
2022-07-28T22:17:59.134Z,46.17
2022-07-28T22:20:26.898Z,46.22
2022-07-28T22:22:55.083Z,46.13
2022-07-28T22:25:22.889Z,45.92
2022-07-28T22:27:50.700Z,46.06
2022-07-28T22:30:19.267Z,46.00
2022-07-28T22:32:47.030Z,46.00
2022-07-28T22:35:16.935Z,46.18
2022-07-28T22:37:46.239Z,46.41
2022-07-28T22:40:16.035Z,46.38
2022-07-28T22:42:44.310Z,46.58
2022-07-28T22:45:13.295Z,46.97
2022-07-28T22:47:41.118Z,46.87
2022-07-28T22:50:10.387Z,47.04
2022-07-28T22:52:39.490Z,47.21
2022-07-28T22:55:08.831Z,47.23
2022-07-28T22:57:36.582Z,47.46
